sensor_id;sensor_type;location;lat;lon;timestamp;P1;durP1;ratioP1;P2;durP2;ratioP2
72273;SDS011;60208;48.692;8.948;2023-09-19T00:00:22;2.42;;;1.15;;
72273;SDS011;60208;48.692;8.948;2023-09-19T00:02:57;1.77;;;1.00;;
72273;SDS011;60208;48.692;8.948;2023-09-19T00:05:27;2.25;;;1.00;;
72273;SDS011;60208;48.692;8.948;2023-09-19T00:07:53;2.28;;;1.10;;
72273;SDS011;60208;48.692;8.948;2023-09-19T00:10:20;1.83;;;1.10;;
72273;SDS011;60208;48.692;8.948;2023-09-19T00:12:47;1.98;;;1.10;;
72273;SDS011;60208;48.692;8.948;2023-09-19T00:15:12;1.48;;;1.10;;
72273;SDS011;60208;48.692;8.948;2023-09-19T00:17:37;2.92;;;1.17;;
72273;SDS011;60208;48.692;8.948;2023-09-19T00:20:05;3.00;;;0.98;;
72273;SDS011;60208;48.692;8.948;2023-09-19T00:22:38;1.15;;;1.00;;
72273;SDS011;60208;48.692;8.948;2023-09-19T00:25:05;2.65;;;1.20;;
72273;SDS011;60208;48.692;8.948;2023-09-19T00:27:31;1.88;;;1.10;;
72273;SDS011;60208;48.692;8.948;2023-09-19T00:29:58;2.78;;;0.98;;
72273;SDS011;60208;48.692;8.948;2023-09-19T00:32:24;2.15;;;1.10;;
72273;SDS011;60208;48.692;8.948;2023-09-19T00:34:49;2.33;;;1.00;;
72273;SDS011;60208;48.692;8.948;2023-09-19T00:37:15;2.63;;;1.10;;
72273;SDS011;60208;48.692;8.948;2023-09-19T00:39:42;2.75;;;1.20;;
72273;SDS011;60208;48.692;8.948;2023-09-19T00:42:08;2.28;;;0.80;;
72273;SDS011;60208;48.692;8.948;2023-09-19T00:44:33;1.25;;;0.90;;
72273;SDS011;60208;48.692;8.948;2023-09-19T00:46:59;1.50;;;1.00;;
72273;SDS011;60208;48.692;8.948;2023-09-19T00:49:25;2.95;;;1.10;;
72273;SDS011;60208;48.692;8.948;2023-09-19T00:51:50;2.13;;;0.93;;
72273;SDS011;60208;48.692;8.948;2023-09-19T00:54:16;1.55;;;0.93;;
72273;SDS011;60208;48.692;8.948;2023-09-19T00:56:44;1.00;;;0.68;;
72273;SDS011;60208;48.692;8.948;2023-09-19T00:59:10;2.78;;;0.80;;
72273;SDS011;60208;48.692;8.948;2023-09-19T01:01:36;1.73;;;1.00;;
72273;SDS011;60208;48.692;8.948;2023-09-19T01:04:04;1.10;;;0.75;;
72273;SDS011;60208;48.692;8.948;2023-09-19T01:06:30;2.90;;;1.20;;
72273;SDS011;60208;48.692;8.948;2023-09-19T01:08:56;1.52;;;1.05;;
72273;SDS011;60208;48.692;8.948;2023-09-19T01:11:26;1.77;;;1.02;;
72273;SDS011;60208;48.692;8.948;2023-09-19T01:14:42;2.50;;;0.80;;
72273;SDS011;60208;48.692;8.948;2023-09-19T01:20:13;2.45;;;0.90;;
72273;SDS011;60208;48.692;8.948;2023-09-19T01:30:43;2.45;;;0.90;;
72273;SDS011;60208;48.692;8.948;2023-09-19T01:33:09;1.38;;;0.77;;
72273;SDS011;60208;48.692;8.948;2023-09-19T01:35:39;1.15;;;0.80;;
72273;SDS011;60208;48.692;8.948;2023-09-19T01:38:08;0.52;;;0.50;;
72273;SDS011;60208;48.692;8.948;2023-09-19T01:40:39;1.92;;;0.90;;
72273;SDS011;60208;48.692;8.948;2023-09-19T01:48:35;0.82;;;0.70;;
72273;SDS011;60208;48.692;8.948;2023-09-19T01:51:08;1.05;;;0.90;;
72273;SDS011;60208;48.692;8.948;2023-09-19T01:59:02;1.65;;;0.80;;
72273;SDS011;60208;48.692;8.948;2023-09-19T02:01:36;1.17;;;0.75;;
72273;SDS011;60208;48.692;8.948;2023-09-19T02:04:03;2.15;;;0.80;;
72273;SDS011;60208;48.692;8.948;2023-09-19T02:06:28;3.40;;;0.88;;
72273;SDS011;60208;48.692;8.948;2023-09-19T02:08:54;1.20;;;0.77;;
72273;SDS011;60208;48.692;8.948;2023-09-19T02:11:20;1.27;;;0.70;;
72273;SDS011;60208;48.692;8.948;2023-09-19T02:13:46;1.20;;;0.70;;
72273;SDS011;60208;48.692;8.948;2023-09-19T02:16:11;1.08;;;0.90;;
72273;SDS011;60208;48.692;8.948;2023-09-19T02:18:37;3.15;;;0.85;;
72273;SDS011;60208;48.692;8.948;2023-09-19T02:21:04;1.42;;;0.80;;
72273;SDS011;60208;48.692;8.948;2023-09-19T02:23:31;1.95;;;0.82;;
72273;SDS011;60208;48.692;8.948;2023-09-19T02:25:58;2.17;;;0.80;;
72273;SDS011;60208;48.692;8.948;2023-09-19T02:28:25;1.88;;;0.80;;
72273;SDS011;60208;48.692;8.948;2023-09-19T02:30:55;0.93;;;0.73;;
72273;SDS011;60208;48.692;8.948;2023-09-19T02:33:21;4.18;;;1.00;;
72273;SDS011;60208;48.692;8.948;2023-09-19T02:35:46;3.50;;;0.85;;
72273;SDS011;60208;48.692;8.948;2023-09-19T02:38:12;1.73;;;0.80;;
72273;SDS011;60208;48.692;8.948;2023-09-19T02:40:37;1.15;;;0.90;;
72273;SDS011;60208;48.692;8.948;2023-09-19T02:43:03;1.05;;;0.85;;
72273;SDS011;60208;48.692;8.948;2023-09-19T02:45:30;1.77;;;0.95;;
72273;SDS011;60208;48.692;8.948;2023-09-19T02:47:55;1.45;;;1.10;;
72273;SDS011;60208;48.692;8.948;2023-09-19T02:50:22;2.85;;;1.10;;
72273;SDS011;60208;48.692;8.948;2023-09-19T02:52:47;2.72;;;1.08;;
72273;SDS011;60208;48.692;8.948;2023-09-19T02:55:16;1.10;;;0.90;;
72273;SDS011;60208;48.692;8.948;2023-09-19T03:00:13;1.55;;;0.98;;
72273;SDS011;60208;48.692;8.948;2023-09-19T03:02:38;1.88;;;1.00;;
72273;SDS011;60208;48.692;8.948;2023-09-19T03:05:06;1.63;;;1.05;;
72273;SDS011;60208;48.692;8.948;2023-09-19T03:07:32;1.55;;;0.93;;
72273;SDS011;60208;48.692;8.948;2023-09-19T03:09:57;2.40;;;1.00;;
72273;SDS011;60208;48.692;8.948;2023-09-19T03:12:23;2.88;;;1.10;;
72273;SDS011;60208;48.692;8.948;2023-09-19T03:14:49;2.38;;;1.00;;
72273;SDS011;60208;48.692;8.948;2023-09-19T03:17:15;3.92;;;1.00;;
72273;SDS011;60208;48.692;8.948;2023-09-19T03:19:41;2.10;;;0.90;;
72273;SDS011;60208;48.692;8.948;2023-09-19T03:22:06;1.48;;;1.10;;
72273;SDS011;60208;48.692;8.948;2023-09-19T03:24:32;2.05;;;0.98;;
72273;SDS011;60208;48.692;8.948;2023-09-19T03:27:00;1.92;;;1.00;;
72273;SDS011;60208;48.692;8.948;2023-09-19T03:29:25;4.55;;;1.30;;
72273;SDS011;60208;48.692;8.948;2023-09-19T03:31:52;4.20;;;1.00;;
72273;SDS011;60208;48.692;8.948;2023-09-19T03:34:19;1.80;;;1.02;;
72273;SDS011;60208;48.692;8.948;2023-09-19T03:36:45;2.40;;;1.02;;
72273;SDS011;60208;48.692;8.948;2023-09-19T03:39:10;2.15;;;1.20;;
72273;SDS011;60208;48.692;8.948;2023-09-19T03:41:35;1.15;;;0.90;;
72273;SDS011;60208;48.692;8.948;2023-09-19T03:44:04;1.23;;;1.00;;
72273;SDS011;60208;48.692;8.948;2023-09-19T03:46:30;2.10;;;1.10;;
72273;SDS011;60208;48.692;8.948;2023-09-19T03:48:57;3.47;;;1.33;;
72273;SDS011;60208;48.692;8.948;2023-09-19T03:51:22;5.95;;;1.40;;
72273;SDS011;60208;48.692;8.948;2023-09-19T03:53:48;1.40;;;1.08;;
72273;SDS011;60208;48.692;8.948;2023-09-19T03:56:15;3.25;;;1.10;;
72273;SDS011;60208;48.692;8.948;2023-09-19T03:58:40;5.22;;;1.20;;
72273;SDS011;60208;48.692;8.948;2023-09-19T04:01:06;1.70;;;1.02;;
72273;SDS011;60208;48.692;8.948;2023-09-19T04:03:35;2.10;;;1.27;;
72273;SDS011;60208;48.692;8.948;2023-09-19T04:06:11;1.75;;;1.20;;
72273;SDS011;60208;48.692;8.948;2023-09-19T04:08:40;1.98;;;1.00;;
72273;SDS011;60208;48.692;8.948;2023-09-19T04:11:05;2.25;;;1.13;;
72273;SDS011;60208;48.692;8.948;2023-09-19T04:13:31;2.65;;;1.15;;
72273;SDS011;60208;48.692;8.948;2023-09-19T04:15:56;1.40;;;1.00;;
72273;SDS011;60208;48.692;8.948;2023-09-19T04:18:22;2.72;;;1.40;;
72273;SDS011;60208;48.692;8.948;2023-09-19T04:20:52;2.28;;;1.30;;
72273;SDS011;60208;48.692;8.948;2023-09-19T04:23:18;2.40;;;1.17;;
72273;SDS011;60208;48.692;8.948;2023-09-19T04:25:46;1.75;;;1.05;;
72273;SDS011;60208;48.692;8.948;2023-09-19T04:28:11;2.67;;;1.23;;
72273;SDS011;60208;48.692;8.948;2023-09-19T04:30:37;2.22;;;1.23;;
72273;SDS011;60208;48.692;8.948;2023-09-19T04:33:05;3.25;;;1.35;;
72273;SDS011;60208;48.692;8.948;2023-09-19T04:35:31;3.25;;;1.15;;
72273;SDS011;60208;48.692;8.948;2023-09-19T04:37:56;2.15;;;1.30;;
72273;SDS011;60208;48.692;8.948;2023-09-19T04:40:22;2.28;;;1.25;;
72273;SDS011;60208;48.692;8.948;2023-09-19T04:42:53;2.17;;;1.30;;
72273;SDS011;60208;48.692;8.948;2023-09-19T04:45:22;1.92;;;1.23;;
72273;SDS011;60208;48.692;8.948;2023-09-19T04:47:51;2.25;;;1.23;;
72273;SDS011;60208;48.692;8.948;2023-09-19T04:50:17;4.25;;;1.50;;
72273;SDS011;60208;48.692;8.948;2023-09-19T04:52:43;1.45;;;1.20;;
72273;SDS011;60208;48.692;8.948;2023-09-19T04:55:13;2.08;;;1.30;;
72273;SDS011;60208;48.692;8.948;2023-09-19T04:57:45;2.13;;;1.23;;
72273;SDS011;60208;48.692;8.948;2023-09-19T05:00:12;2.95;;;1.70;;
72273;SDS011;60208;48.692;8.948;2023-09-19T05:02:41;5.35;;;1.60;;
72273;SDS011;60208;48.692;8.948;2023-09-19T05:05:07;3.70;;;1.63;;
72273;SDS011;60208;48.692;8.948;2023-09-19T05:07:34;2.15;;;1.52;;
72273;SDS011;60208;48.692;8.948;2023-09-19T05:09:59;3.28;;;1.60;;
72273;SDS011;60208;48.692;8.948;2023-09-19T05:12:26;5.90;;;1.80;;
72273;SDS011;60208;48.692;8.948;2023-09-19T05:14:52;3.75;;;1.90;;
72273;SDS011;60208;48.692;8.948;2023-09-19T05:17:17;4.45;;;2.00;;
72273;SDS011;60208;48.692;8.948;2023-09-19T05:19:46;3.03;;;2.05;;
72273;SDS011;60208;48.692;8.948;2023-09-19T05:22:11;5.20;;;1.85;;
72273;SDS011;60208;48.692;8.948;2023-09-19T05:24:37;8.07;;;1.67;;
72273;SDS011;60208;48.692;8.948;2023-09-19T05:27:07;3.10;;;1.60;;
72273;SDS011;60208;48.692;8.948;2023-09-19T05:29:33;4.00;;;1.70;;
72273;SDS011;60208;48.692;8.948;2023-09-19T05:31:58;3.55;;;1.80;;
72273;SDS011;60208;48.692;8.948;2023-09-19T05:34:24;3.22;;;1.80;;
72273;SDS011;60208;48.692;8.948;2023-09-19T05:36:53;2.80;;;1.70;;
72273;SDS011;60208;48.692;8.948;2023-09-19T05:39:19;3.00;;;1.73;;
72273;SDS011;60208;48.692;8.948;2023-09-19T05:41:45;6.38;;;1.90;;
72273;SDS011;60208;48.692;8.948;2023-09-19T05:44:12;2.67;;;1.85;;
72273;SDS011;60208;48.692;8.948;2023-09-19T05:46:39;3.13;;;1.70;;
72273;SDS011;60208;48.692;8.948;2023-09-19T05:49:04;2.10;;;1.70;;
72273;SDS011;60208;48.692;8.948;2023-09-19T05:51:30;4.70;;;2.03;;
72273;SDS011;60208;48.692;8.948;2023-09-19T05:53:55;4.72;;;3.00;;
72273;SDS011;60208;48.692;8.948;2023-09-19T05:56:21;4.50;;;1.80;;
72273;SDS011;60208;48.692;8.948;2023-09-19T05:58:47;3.00;;;1.67;;
72273;SDS011;60208;48.692;8.948;2023-09-19T06:01:12;1.15;;;0.98;;
72273;SDS011;60208;48.692;8.948;2023-09-19T06:03:38;1.73;;;0.88;;
72273;SDS011;60208;48.692;8.948;2023-09-19T06:06:03;5.28;;;1.23;;
72273;SDS011;60208;48.692;8.948;2023-09-19T06:08:31;2.75;;;1.40;;
72273;SDS011;60208;48.692;8.948;2023-09-19T06:10:57;1.38;;;1.00;;
72273;SDS011;60208;48.692;8.948;2023-09-19T06:13:22;3.20;;;0.80;;
72273;SDS011;60208;48.692;8.948;2023-09-19T06:15:50;1.33;;;0.90;;
72273;SDS011;60208;48.692;8.948;2023-09-19T06:18:16;3.63;;;1.15;;
72273;SDS011;60208;48.692;8.948;2023-09-19T06:20:47;1.60;;;0.90;;
72273;SDS011;60208;48.692;8.948;2023-09-19T06:23:16;1.05;;;0.75;;
72273;SDS011;60208;48.692;8.948;2023-09-19T06:25:42;1.00;;;0.80;;
72273;SDS011;60208;48.692;8.948;2023-09-19T06:28:08;1.27;;;1.10;;
72273;SDS011;60208;48.692;8.948;2023-09-19T06:30:37;1.92;;;0.88;;
72273;SDS011;60208;48.692;8.948;2023-09-19T06:33:05;1.60;;;0.95;;
72273;SDS011;60208;48.692;8.948;2023-09-19T06:35:32;1.33;;;1.10;;
72273;SDS011;60208;48.692;8.948;2023-09-19T06:37:58;2.10;;;1.10;;
72273;SDS011;60208;48.692;8.948;2023-09-19T06:40:23;2.90;;;1.30;;
72273;SDS011;60208;48.692;8.948;2023-09-19T06:42:52;2.05;;;1.20;;
72273;SDS011;60208;48.692;8.948;2023-09-19T06:45:19;2.33;;;1.08;;
72273;SDS011;60208;48.692;8.948;2023-09-19T06:47:48;2.75;;;1.10;;
72273;SDS011;60208;48.692;8.948;2023-09-19T06:50:19;2.83;;;1.10;;
72273;SDS011;60208;48.692;8.948;2023-09-19T06:52:47;2.80;;;1.17;;
72273;SDS011;60208;48.692;8.948;2023-09-19T06:55:15;2.03;;;1.05;;
72273;SDS011;60208;48.692;8.948;2023-09-19T06:57:41;1.73;;;1.17;;
72273;SDS011;60208;48.692;8.948;2023-09-19T07:00:08;2.33;;;1.30;;
72273;SDS011;60208;48.692;8.948;2023-09-19T07:02:41;1.75;;;0.95;;
72273;SDS011;60208;48.692;8.948;2023-09-19T07:05:07;1.15;;;0.75;;
72273;SDS011;60208;48.692;8.948;2023-09-19T07:07:32;2.45;;;1.00;;
72273;SDS011;60208;48.692;8.948;2023-09-19T07:10:00;2.50;;;0.90;;
72273;SDS011;60208;48.692;8.948;2023-09-19T07:12:26;2.95;;;0.77;;
72273;SDS011;60208;48.692;8.948;2023-09-19T07:14:51;2.17;;;0.88;;
72273;SDS011;60208;48.692;8.948;2023-09-19T07:17:17;2.33;;;0.90;;
72273;SDS011;60208;48.692;8.948;2023-09-19T07:19:44;1.80;;;0.90;;
72273;SDS011;60208;48.692;8.948;2023-09-19T07:22:09;0.70;;;0.70;;
72273;SDS011;60208;48.692;8.948;2023-09-19T07:24:35;1.58;;;0.70;;
72273;SDS011;60208;48.692;8.948;2023-09-19T07:27:02;1.85;;;0.80;;
72273;SDS011;60208;48.692;8.948;2023-09-19T07:29:27;1.05;;;0.70;;
72273;SDS011;60208;48.692;8.948;2023-09-19T07:31:53;1.90;;;0.85;;
72273;SDS011;60208;48.692;8.948;2023-09-19T07:34:19;1.85;;;0.80;;
72273;SDS011;60208;48.692;8.948;2023-09-19T07:36:46;1.73;;;0.80;;
72273;SDS011;60208;48.692;8.948;2023-09-19T07:39:12;2.80;;;1.20;;
72273;SDS011;60208;48.692;8.948;2023-09-19T07:41:38;2.17;;;1.00;;
72273;SDS011;60208;48.692;8.948;2023-09-19T07:44:03;1.20;;;1.10;;
72273;SDS011;60208;48.692;8.948;2023-09-19T07:46:29;2.50;;;1.27;;
72273;SDS011;60208;48.692;8.948;2023-09-19T07:48:56;2.22;;;1.02;;
72273;SDS011;60208;48.692;8.948;2023-09-19T07:51:22;1.17;;;0.90;;
72273;SDS011;60208;48.692;8.948;2023-09-19T07:53:47;2.17;;;1.08;;
72273;SDS011;60208;48.692;8.948;2023-09-19T07:56:13;1.80;;;0.90;;
72273;SDS011;60208;48.692;8.948;2023-09-19T07:58:39;2.15;;;1.10;;
72273;SDS011;60208;48.692;8.948;2023-09-19T08:01:06;1.20;;;1.05;;
72273;SDS011;60208;48.692;8.948;2023-09-19T08:03:32;3.03;;;1.00;;
72273;SDS011;60208;48.692;8.948;2023-09-19T08:05:59;2.38;;;1.20;;
72273;SDS011;60208;48.692;8.948;2023-09-19T08:08:25;2.88;;;1.08;;
72273;SDS011;60208;48.692;8.948;2023-09-19T08:10:55;1.92;;;1.30;;
72273;SDS011;60208;48.692;8.948;2023-09-19T08:13:24;2.35;;;0.90;;
72273;SDS011;60208;48.692;8.948;2023-09-19T08:15:50;2.97;;;1.15;;
72273;SDS011;60208;48.692;8.948;2023-09-19T08:18:16;2.50;;;1.10;;
72273;SDS011;60208;48.692;8.948;2023-09-19T08:20:42;2.33;;;1.20;;
72273;SDS011;60208;48.692;8.948;2023-09-19T08:23:08;2.10;;;1.30;;
72273;SDS011;60208;48.692;8.948;2023-09-19T08:25:33;2.60;;;1.20;;
72273;SDS011;60208;48.692;8.948;2023-09-19T08:27:59;1.23;;;1.00;;
72273;SDS011;60208;48.692;8.948;2023-09-19T08:30:27;1.67;;;1.10;;
72273;SDS011;60208;48.692;8.948;2023-09-19T08:32:58;2.60;;;1.13;;
72273;SDS011;60208;48.692;8.948;2023-09-19T08:35:24;2.17;;;1.20;;
72273;SDS011;60208;48.692;8.948;2023-09-19T08:37:49;2.60;;;1.05;;
72273;SDS011;60208;48.692;8.948;2023-09-19T08:40:15;2.35;;;1.10;;
72273;SDS011;60208;48.692;8.948;2023-09-19T08:42:50;2.58;;;1.00;;
72273;SDS011;60208;48.692;8.948;2023-09-19T08:45:20;2.20;;;0.93;;
72273;SDS011;60208;48.692;8.948;2023-09-19T08:50:30;1.63;;;1.10;;
72273;SDS011;60208;48.692;8.948;2023-09-19T08:52:57;1.48;;;1.00;;
72273;SDS011;60208;48.692;8.948;2023-09-19T08:55:28;1.33;;;1.08;;
72273;SDS011;60208;48.692;8.948;2023-09-19T08:58:00;2.05;;;0.93;;
72273;SDS011;60208;48.692;8.948;2023-09-19T09:00:29;2.10;;;1.10;;
72273;SDS011;60208;48.692;8.948;2023-09-19T09:02:56;3.67;;;1.10;;
72273;SDS011;60208;48.692;8.948;2023-09-19T09:05:22;1.92;;;0.80;;
72273;SDS011;60208;48.692;8.948;2023-09-19T09:07:49;1.35;;;1.00;;
72273;SDS011;60208;48.692;8.948;2023-09-19T09:10:19;2.17;;;1.10;;
72273;SDS011;60208;48.692;8.948;2023-09-19T09:12:48;1.48;;;1.13;;
72273;SDS011;60208;48.692;8.948;2023-09-19T09:15:15;2.05;;;0.93;;
72273;SDS011;60208;48.692;8.948;2023-09-19T09:17:42;3.28;;;1.10;;
72273;SDS011;60208;48.692;8.948;2023-09-19T09:20:09;1.92;;;1.17;;
72273;SDS011;60208;48.692;8.948;2023-09-19T09:22:35;2.33;;;0.90;;
72273;SDS011;60208;48.692;8.948;2023-09-19T09:25:05;1.73;;;1.20;;
72273;SDS011;60208;48.692;8.948;2023-09-19T09:27:30;2.78;;;1.20;;
72273;SDS011;60208;48.692;8.948;2023-09-19T09:29:57;5.55;;;1.20;;
72273;SDS011;60208;48.692;8.948;2023-09-19T09:34:59;2.22;;;0.93;;
72273;SDS011;60208;48.692;8.948;2023-09-19T09:37:25;1.27;;;1.00;;
72273;SDS011;60208;48.692;8.948;2023-09-19T09:39:56;1.35;;;0.90;;
72273;SDS011;60208;48.692;8.948;2023-09-19T09:42:36;2.40;;;1.20;;
72273;SDS011;60208;48.692;8.948;2023-09-19T09:48:00;1.75;;;1.20;;
72273;SDS011;60208;48.692;8.948;2023-09-19T09:53:22;2.45;;;0.98;;
72273;SDS011;60208;48.692;8.948;2023-09-19T09:58:31;2.70;;;0.93;;
72273;SDS011;60208;48.692;8.948;2023-09-19T10:01:00;1.73;;;1.10;;
72273;SDS011;60208;48.692;8.948;2023-09-19T10:03:37;2.08;;;1.20;;
72273;SDS011;60208;48.692;8.948;2023-09-19T10:06:12;2.10;;;0.90;;
72273;SDS011;60208;48.692;8.948;2023-09-19T10:08:58;1.77;;;1.00;;
72273;SDS011;60208;48.692;8.948;2023-09-19T10:11:45;1.77;;;1.08;;
72273;SDS011;60208;48.692;8.948;2023-09-19T10:14:13;1.50;;;0.93;;
72273;SDS011;60208;48.692;8.948;2023-09-19T10:16:48;1.33;;;0.90;;
72273;SDS011;60208;48.692;8.948;2023-09-19T10:21:41;1.00;;;0.90;;
72273;SDS011;60208;48.692;8.948;2023-09-19T10:24:08;2.55;;;0.90;;
72273;SDS011;60208;48.692;8.948;2023-09-19T10:26:34;3.95;;;1.00;;
72273;SDS011;60208;48.692;8.948;2023-09-19T10:29:01;1.50;;;0.80;;
72273;SDS011;60208;48.692;8.948;2023-09-19T10:31:32;1.73;;;0.80;;
72273;SDS011;60208;48.692;8.948;2023-09-19T10:34:00;2.35;;;0.90;;
72273;SDS011;60208;48.692;8.948;2023-09-19T10:36:29;2.85;;;0.90;;
72273;SDS011;60208;48.692;8.948;2023-09-19T10:39:00;2.08;;;0.90;;
72273;SDS011;60208;48.692;8.948;2023-09-19T10:41:29;1.75;;;1.00;;
72273;SDS011;60208;48.692;8.948;2023-09-19T10:43:59;2.58;;;1.02;;
72273;SDS011;60208;48.692;8.948;2023-09-19T10:46:30;1.23;;;0.80;;
72273;SDS011;60208;48.692;8.948;2023-09-19T10:48:58;1.63;;;0.98;;
72273;SDS011;60208;48.692;8.948;2023-09-19T10:51:25;1.98;;;0.98;;
72273;SDS011;60208;48.692;8.948;2023-09-19T10:53:58;2.30;;;0.90;;
72273;SDS011;60208;48.692;8.948;2023-09-19T10:56:36;1.73;;;0.90;;
72273;SDS011;60208;48.692;8.948;2023-09-19T10:59:14;0.80;;;0.70;;
72273;SDS011;60208;48.692;8.948;2023-09-19T11:02:15;1.85;;;0.80;;
72273;SDS011;60208;48.692;8.948;2023-09-19T11:04:40;1.95;;;0.90;;
72273;SDS011;60208;48.692;8.948;2023-09-19T11:09:55;2.40;;;0.90;;
72273;SDS011;60208;48.692;8.948;2023-09-19T11:15:01;2.63;;;0.77;;
72273;SDS011;60208;48.692;8.948;2023-09-19T11:17:33;1.10;;;0.80;;
72273;SDS011;60208;48.692;8.948;2023-09-19T11:28:28;2.80;;;0.85;;
72273;SDS011;60208;48.692;8.948;2023-09-19T11:30:48;1.38;;;0.93;;
72273;SDS011;60208;48.692;8.948;2023-09-19T11:43:50;2.88;;;0.80;;
72273;SDS011;60208;48.692;8.948;2023-09-19T11:46:25;2.67;;;0.80;;
72273;SDS011;60208;48.692;8.948;2023-09-19T11:48:51;1.10;;;0.80;;
72273;SDS011;60208;48.692;8.948;2023-09-19T11:51:21;1.00;;;0.70;;
72273;SDS011;60208;48.692;8.948;2023-09-19T11:53:51;0.98;;;0.60;;
72273;SDS011;60208;48.692;8.948;2023-09-19T11:56:26;1.17;;;0.63;;
72273;SDS011;60208;48.692;8.948;2023-09-19T11:58:56;1.02;;;0.80;;
72273;SDS011;60208;48.692;8.948;2023-09-19T12:01:23;2.08;;;0.80;;
72273;SDS011;60208;48.692;8.948;2023-09-19T12:03:54;0.77;;;0.70;;
72273;SDS011;60208;48.692;8.948;2023-09-19T12:06:28;1.13;;;0.70;;
72273;SDS011;60208;48.692;8.948;2023-09-19T12:08:54;1.40;;;0.70;;
72273;SDS011;60208;48.692;8.948;2023-09-19T12:11:22;1.17;;;0.70;;
72273;SDS011;60208;48.692;8.948;2023-09-19T12:13:48;1.05;;;0.77;;
72273;SDS011;60208;48.692;8.948;2023-09-19T12:16:20;1.23;;;0.80;;
72273;SDS011;60208;48.692;8.948;2023-09-19T12:18:49;1.52;;;0.63;;
72273;SDS011;60208;48.692;8.948;2023-09-19T12:21:22;1.20;;;0.80;;
72273;SDS011;60208;48.692;8.948;2023-09-19T12:26:29;1.50;;;1.00;;
72273;SDS011;60208;48.692;8.948;2023-09-19T12:28:59;2.00;;;0.75;;
72273;SDS011;60208;48.692;8.948;2023-09-19T12:31:26;1.27;;;0.73;;
72273;SDS011;60208;48.692;8.948;2023-09-19T12:33:55;1.55;;;0.80;;
72273;SDS011;60208;48.692;8.948;2023-09-19T12:36:24;1.60;;;0.70;;
72273;SDS011;60208;48.692;8.948;2023-09-19T12:38:58;1.75;;;0.57;;
72273;SDS011;60208;48.692;8.948;2023-09-19T12:41:24;0.95;;;0.70;;
72273;SDS011;60208;48.692;8.948;2023-09-19T12:43:51;1.08;;;0.70;;
72273;SDS011;60208;48.692;8.948;2023-09-19T12:46:22;1.05;;;0.80;;
72273;SDS011;60208;48.692;8.948;2023-09-19T12:49:36;1.63;;;0.80;;
72273;SDS011;60208;48.692;8.948;2023-09-19T12:51:42;1.95;;;0.90;;
72273;SDS011;60208;48.692;8.948;2023-09-19T12:54:08;0.70;;;0.70;;
72273;SDS011;60208;48.692;8.948;2023-09-19T12:56:42;0.73;;;0.70;;
72273;SDS011;60208;48.692;8.948;2023-09-19T12:59:09;3.45;;;0.70;;
72273;SDS011;60208;48.692;8.948;2023-09-19T13:01:38;3.00;;;0.80;;
72273;SDS011;60208;48.692;8.948;2023-09-19T13:06:54;0.82;;;0.70;;
72273;SDS011;60208;48.692;8.948;2023-09-19T13:09:20;1.92;;;0.90;;
72273;SDS011;60208;48.692;8.948;2023-09-19T13:11:47;0.80;;;0.70;;
72273;SDS011;60208;48.692;8.948;2023-09-19T13:19:54;0.75;;;0.60;;
72273;SDS011;60208;48.692;8.948;2023-09-19T13:22:39;1.10;;;0.80;;
72273;SDS011;60208;48.692;8.948;2023-09-19T13:25:08;1.58;;;0.77;;
72273;SDS011;60208;48.692;8.948;2023-09-19T13:27:39;1.50;;;0.80;;
72273;SDS011;60208;48.692;8.948;2023-09-19T13:30:06;1.13;;;0.80;;
72273;SDS011;60208;48.692;8.948;2023-09-19T13:32:32;1.08;;;0.73;;
72273;SDS011;60208;48.692;8.948;2023-09-19T13:34:58;1.13;;;0.75;;
72273;SDS011;60208;48.692;8.948;2023-09-19T13:37:24;1.05;;;0.80;;
72273;SDS011;60208;48.692;8.948;2023-09-19T13:39:49;1.80;;;1.00;;
72273;SDS011;60208;48.692;8.948;2023-09-19T13:42:17;1.80;;;1.00;;
72273;SDS011;60208;48.692;8.948;2023-09-19T13:44:43;2.63;;;0.80;;
72273;SDS011;60208;48.692;8.948;2023-09-19T13:47:09;0.93;;;0.93;;
72273;SDS011;60208;48.692;8.948;2023-09-19T13:49:35;1.55;;;0.93;;
72273;SDS011;60208;48.692;8.948;2023-09-19T13:52:01;2.30;;;0.90;;
72273;SDS011;60208;48.692;8.948;2023-09-19T13:54:30;1.23;;;0.90;;
72273;SDS011;60208;48.692;8.948;2023-09-19T13:56:56;1.00;;;0.82;;
72273;SDS011;60208;48.692;8.948;2023-09-19T13:59:21;1.13;;;0.70;;
72273;SDS011;60208;48.692;8.948;2023-09-19T14:01:48;1.98;;;0.88;;
72273;SDS011;60208;48.692;8.948;2023-09-19T14:04:14;0.75;;;0.75;;
72273;SDS011;60208;48.692;8.948;2023-09-19T14:06:42;0.82;;;0.70;;
72273;SDS011;60208;48.692;8.948;2023-09-19T14:09:08;2.40;;;0.93;;
72273;SDS011;60208;48.692;8.948;2023-09-19T14:11:35;1.42;;;0.80;;
72273;SDS011;60208;48.692;8.948;2023-09-19T14:14:01;1.08;;;0.80;;
72273;SDS011;60208;48.692;8.948;2023-09-19T14:16:26;1.00;;;0.90;;
72273;SDS011;60208;48.692;8.948;2023-09-19T14:18:55;1.10;;;1.00;;
72273;SDS011;60208;48.692;8.948;2023-09-19T14:21:20;2.28;;;0.82;;
72273;SDS011;60208;48.692;8.948;2023-09-19T14:23:46;1.20;;;0.80;;
72273;SDS011;60208;48.692;8.948;2023-09-19T14:26:11;1.20;;;0.70;;
72273;SDS011;60208;48.692;8.948;2023-09-19T14:28:37;1.27;;;0.70;;
72273;SDS011;60208;48.692;8.948;2023-09-19T14:31:04;1.10;;;0.70;;
72273;SDS011;60208;48.692;8.948;2023-09-19T14:33:31;1.75;;;1.00;;
72273;SDS011;60208;48.692;8.948;2023-09-19T14:35:56;1.38;;;1.00;;
72273;SDS011;60208;48.692;8.948;2023-09-19T14:38:22;0.88;;;0.60;;
72273;SDS011;60208;48.692;8.948;2023-09-19T14:40:47;1.15;;;0.70;;
72273;SDS011;60208;48.692;8.948;2023-09-19T14:43:15;0.80;;;0.60;;
72273;SDS011;60208;48.692;8.948;2023-09-19T14:45:40;1.83;;;0.60;;
72273;SDS011;60208;48.692;8.948;2023-09-19T14:48:06;2.05;;;0.70;;
72273;SDS011;60208;48.692;8.948;2023-09-19T14:50:32;1.25;;;0.80;;
72273;SDS011;60208;48.692;8.948;2023-09-19T14:52:58;0.60;;;0.60;;
72273;SDS011;60208;48.692;8.948;2023-09-19T14:55:27;2.00;;;0.85;;
72273;SDS011;60208;48.692;8.948;2023-09-19T14:57:54;2.47;;;0.80;;
72273;SDS011;60208;48.692;8.948;2023-09-19T15:00:22;2.03;;;0.85;;
72273;SDS011;60208;48.692;8.948;2023-09-19T15:02:48;1.15;;;0.70;;
72273;SDS011;60208;48.692;8.948;2023-09-19T15:05:15;1.75;;;0.70;;
72273;SDS011;60208;48.692;8.948;2023-09-19T15:07:41;1.17;;;0.60;;
72273;SDS011;60208;48.692;8.948;2023-09-19T15:10:07;0.70;;;0.65;;
72273;SDS011;60208;48.692;8.948;2023-09-19T15:12:34;1.10;;;0.70;;
72273;SDS011;60208;48.692;8.948;2023-09-19T15:15:03;1.60;;;0.80;;
72273;SDS011;60208;48.692;8.948;2023-09-19T15:17:33;0.80;;;0.80;;
72273;SDS011;60208;48.692;8.948;2023-09-19T15:19:59;0.75;;;0.70;;
72273;SDS011;60208;48.692;8.948;2023-09-19T15:22:24;2.58;;;0.70;;
72273;SDS011;60208;48.692;8.948;2023-09-19T15:24:50;0.88;;;0.57;;
72273;SDS011;60208;48.692;8.948;2023-09-19T15:27:16;0.85;;;0.60;;
72273;SDS011;60208;48.692;8.948;2023-09-19T15:29:44;4.05;;;0.80;;
72273;SDS011;60208;48.692;8.948;2023-09-19T15:32:10;1.35;;;0.80;;
72273;SDS011;60208;48.692;8.948;2023-09-19T15:34:36;1.15;;;0.63;;
72273;SDS011;60208;48.692;8.948;2023-09-19T15:37:02;1.15;;;0.73;;
72273;SDS011;60208;48.692;8.948;2023-09-19T15:39:30;0.93;;;0.70;;
72273;SDS011;60208;48.692;8.948;2023-09-19T15:41:58;1.00;;;0.60;;
72273;SDS011;60208;48.692;8.948;2023-09-19T15:44:24;1.17;;;0.80;;
72273;SDS011;60208;48.692;8.948;2023-09-19T15:46:52;2.38;;;0.80;;
72273;SDS011;60208;48.692;8.948;2023-09-19T15:49:17;1.13;;;0.80;;
72273;SDS011;60208;48.692;8.948;2023-09-19T15:51:43;1.35;;;0.77;;
72273;SDS011;60208;48.692;8.948;2023-09-19T15:54:17;1.02;;;0.80;;
72273;SDS011;60208;48.692;8.948;2023-09-19T15:56:43;0.90;;;0.70;;
72273;SDS011;60208;48.692;8.948;2023-09-19T15:59:09;1.50;;;0.90;;
72273;SDS011;60208;48.692;8.948;2023-09-19T16:01:39;1.73;;;0.93;;
72273;SDS011;60208;48.692;8.948;2023-09-19T16:04:08;3.70;;;0.70;;
72273;SDS011;60208;48.692;8.948;2023-09-19T16:06:34;2.47;;;0.80;;